Lippert, North Dakota
Current Conditions -  °F | °C
As of 8:56 AM on Wednesday 26 Nov 2014 (Local Time) from KJMS Reporting Station
Overcast Overcast  
Wind Chill: -15°   Ceiling: 11000
Heat Index:   Visibility: 10mi
Dew Point: -5°   Wind: 12mph
Humidity: 72%   Direction: 350°N
Pressure: 30.33"   Gusts: NA
Location:  46.8494°N, 98.7424°W
Report Text: KJMS 261456Z AUTO 35010KT 10SM SCT060 SCT070 OVC110 M17/M21 A3033 RMK AO2 SLP307 T11671206 53021
Loading
Personal Weather Stations






























Interactive Weather Map New forecast layout! Learn more

10-Day Weather Forecast

Advertisements
Track Severe Weather on mobile